Terminal Aerodrome Forecast
Issued by NWS

Home | Current Version | Previous Version | Text Only | Print | Product List | Glossary On
Versions: 1 2 3 4 5 6 7 8 9 10 11 12
919
FTUS45 KRIW 042331
TAFRKS
TAF
KRKS 042331Z 0500/0524 20011KT P6SM FEW110
     FM050300 17008KT P6SM FEW100
     FM052000 19014G24KT P6SM SCT080 BKN150=

USA.gov is the U.S. government's official web portal to all federal, state and local government web resources and services.